sensor_id;sensor_type;location;lat;lon;timestamp;pressure;altitude;pressure_sealevel;temperature;humidity
18858;BME280;9558;50.178;8.370;2023-09-30T00:02:23;99033.72;;;14.50;100.00
18858;BME280;9558;50.178;8.370;2023-09-30T00:05:10;99046.22;;;14.55;100.00
18858;BME280;9558;50.178;8.370;2023-09-30T00:07:58;99049.44;;;14.57;100.00
18858;BME280;9558;50.178;8.370;2023-09-30T00:10:45;99064.69;;;14.60;100.00
18858;BME280;9558;50.178;8.370;2023-09-30T00:13:32;99073.19;;;14.62;100.00
18858;BME280;9558;50.178;8.370;2023-09-30T00:16:19;99076.41;;;14.64;100.00
18858;BME280;9558;50.178;8.370;2023-09-30T00:19:05;99070.88;;;14.67;100.00
18858;BME280;9558;50.178;8.370;2023-09-30T00:21:53;99061.44;;;14.66;100.00
18858;BME280;9558;50.178;8.370;2023-09-30T00:24:41;99076.09;;;14.67;100.00
18858;BME280;9558;50.178;8.370;2023-09-30T00:27:27;99071.47;;;14.69;100.00
18858;BME280;9558;50.178;8.370;2023-09-30T00:30:14;99073.91;;;14.71;100.00
18858;BME280;9558;50.178;8.370;2023-09-30T00:33:01;99087.41;;;14.75;100.00
18858;BME280;9558;50.178;8.370;2023-09-30T00:35:48;99075.97;;;14.76;100.00
18858;BME280;9558;50.178;8.370;2023-09-30T00:38:36;99087.03;;;14.78;100.00
18858;BME280;9558;50.178;8.370;2023-09-30T00:41:24;99086.03;;;14.79;100.00
18858;BME280;9558;50.178;8.370;2023-09-30T00:44:13;99083.28;;;14.80;100.00
18858;BME280;9558;50.178;8.370;2023-09-30T00:47:00;99090.25;;;14.80;100.00
18858;BME280;9558;50.178;8.370;2023-09-30T00:49:47;99093.50;;;14.82;100.00
18858;BME280;9558;50.178;8.370;2023-09-30T00:52:36;99103.94;;;14.82;100.00
18858;BME280;9558;50.178;8.370;2023-09-30T00:55:23;99113.53;;;14.81;100.00
18858;BME280;9558;50.178;8.370;2023-09-30T00:58:11;99098.38;;;14.85;100.00
18858;BME280;9558;50.178;8.370;2023-09-30T01:00:59;99103.56;;;14.85;100.00
18858;BME280;9558;50.178;8.370;2023-09-30T01:03:46;99113.16;;;14.84;100.00
18858;BME280;9558;50.178;8.370;2023-09-30T01:06:33;99110.75;;;14.83;100.00
18858;BME280;9558;50.178;8.370;2023-09-30T01:09:20;99109.84;;;14.76;100.00
18858;BME280;9558;50.178;8.370;2023-09-30T01:12:07;99113.97;;;14.70;100.00
18858;BME280;9558;50.178;8.370;2023-09-30T01:14:58;99110.94;;;14.66;100.00
18858;BME280;9558;50.178;8.370;2023-09-30T01:17:45;99114.06;;;14.62;100.00
18858;BME280;9558;50.178;8.370;2023-09-30T01:20:32;99127.22;;;14.60;100.00
18858;BME280;9558;50.178;8.370;2023-09-30T01:23:20;99120.41;;;14.59;100.00
18858;BME280;9558;50.178;8.370;2023-09-30T01:26:08;99123.38;;;14.56;100.00
18858;BME280;9558;50.178;8.370;2023-09-30T01:28:55;99116.53;;;14.55;100.00
18858;BME280;9558;50.178;8.370;2023-09-30T01:31:42;99123.72;;;14.53;100.00
18858;BME280;9558;50.178;8.370;2023-09-30T01:34:29;99117.88;;;14.51;100.00
18858;BME280;9558;50.178;8.370;2023-09-30T01:37:15;99117.06;;;14.50;100.00
18858;BME280;9558;50.178;8.370;2023-09-30T01:40:05;99117.88;;;14.51;100.00
18858;BME280;9558;50.178;8.370;2023-09-30T01:42:56;99109.09;;;14.52;100.00
18858;BME280;9558;50.178;8.370;2023-09-30T01:45:43;99112.66;;;14.51;100.00
18858;BME280;9558;50.178;8.370;2023-09-30T01:48:30;99107.16;;;14.46;100.00
18858;BME280;9558;50.178;8.370;2023-09-30T01:51:17;99100.53;;;14.43;100.00
18858;BME280;9558;50.178;8.370;2023-09-30T01:54:03;99089.66;;;14.40;100.00
18858;BME280;9558;50.178;8.370;2023-09-30T01:56:52;99090.00;;;14.37;100.00
18858;BME280;9558;50.178;8.370;2023-09-30T01:59:38;99088.91;;;14.31;100.00
18858;BME280;9558;50.178;8.370;2023-09-30T02:02:25;99097.88;;;14.28;100.00
18858;BME280;9558;50.178;8.370;2023-09-30T02:05:12;99103.81;;;14.22;100.00
18858;BME280;9558;50.178;8.370;2023-09-30T02:07:59;99105.75;;;14.20;100.00
18858;BME280;9558;50.178;8.370;2023-09-30T02:10:51;99119.50;;;14.14;100.00
18858;BME280;9558;50.178;8.370;2023-09-30T02:13:39;99122.44;;;14.11;100.00
18858;BME280;9558;50.178;8.370;2023-09-30T02:16:26;99121.00;;;14.08;100.00
18858;BME280;9558;50.178;8.370;2023-09-30T02:19:13;99128.34;;;14.05;100.00
18858;BME280;9558;50.178;8.370;2023-09-30T02:22:00;99126.72;;;14.04;100.00
18858;BME280;9558;50.178;8.370;2023-09-30T02:24:47;99128.69;;;14.02;100.00
18858;BME280;9558;50.178;8.370;2023-09-30T02:27:35;99127.75;;;13.94;100.00
18858;BME280;9558;50.178;8.370;2023-09-30T02:30:23;99125.50;;;13.91;100.00
18858;BME280;9558;50.178;8.370;2023-09-30T02:33:10;99123.88;;;13.90;100.00
18858;BME280;9558;50.178;8.370;2023-09-30T02:35:57;99122.91;;;13.91;100.00
18858;BME280;9558;50.178;8.370;2023-09-30T02:38:44;99110.84;;;13.90;100.00
18858;BME280;9558;50.178;8.370;2023-09-30T02:41:31;99112.03;;;13.88;100.00
18858;BME280;9558;50.178;8.370;2023-09-30T02:44:18;99111.91;;;13.81;100.00
18858;BME280;9558;50.178;8.370;2023-09-30T02:47:06;99127.53;;;13.81;100.00
18858;BME280;9558;50.178;8.370;2023-09-30T02:49:56;99131.09;;;13.80;100.00
18858;BME280;9558;50.178;8.370;2023-09-30T02:52:43;99130.47;;;13.78;100.00
18858;BME280;9558;50.178;8.370;2023-09-30T02:55:30;99122.19;;;13.74;100.00
18858;BME280;9558;50.178;8.370;2023-09-30T02:58:17;99141.72;;;13.70;100.00
18858;BME280;9558;50.178;8.370;2023-09-30T03:01:04;99126.13;;;13.70;100.00
18858;BME280;9558;50.178;8.370;2023-09-30T03:03:53;99129.22;;;13.65;100.00
18858;BME280;9558;50.178;8.370;2023-09-30T03:06:40;99126.19;;;13.62;100.00
18858;BME280;9558;50.178;8.370;2023-09-30T03:09:27;99125.53;;;13.60;100.00
18858;BME280;9558;50.178;8.370;2023-09-30T03:12:14;99120.50;;;13.58;100.00
18858;BME280;9558;50.178;8.370;2023-09-30T03:15:01;99129.44;;;13.56;100.00
18858;BME280;9558;50.178;8.370;2023-09-30T03:17:50;99140.69;;;13.56;100.00
18858;BME280;9558;50.178;8.370;2023-09-30T03:20:39;99135.47;;;13.56;100.00
18858;BME280;9558;50.178;8.370;2023-09-30T03:23:26;99141.47;;;13.57;100.00
18858;BME280;9558;50.178;8.370;2023-09-30T03:26:15;99139.84;;;13.56;100.00
18858;BME280;9558;50.178;8.370;2023-09-30T03:29:02;99159.06;;;13.55;100.00
18858;BME280;9558;50.178;8.370;2023-09-30T03:31:51;99163.09;;;13.57;100.00
18858;BME280;9558;50.178;8.370;2023-09-30T03:34:38;99154.31;;;13.58;100.00
18858;BME280;9558;50.178;8.370;2023-09-30T03:37:31;99149.44;;;13.55;100.00
18858;BME280;9558;50.178;8.370;2023-09-30T03:40:18;99157.06;;;13.57;100.00
18858;BME280;9558;50.178;8.370;2023-09-30T03:43:05;99176.09;;;13.57;100.00
18858;BME280;9558;50.178;8.370;2023-09-30T03:45:52;99175.91;;;13.59;100.00
18858;BME280;9558;50.178;8.370;2023-09-30T03:48:39;99176.75;;;13.59;100.00
18858;BME280;9558;50.178;8.370;2023-09-30T03:51:25;99191.03;;;13.63;100.00
18858;BME280;9558;50.178;8.370;2023-09-30T03:54:14;99199.47;;;13.65;100.00
18858;BME280;9558;50.178;8.370;2023-09-30T03:57:01;99188.38;;;13.72;100.00
18858;BME280;9558;50.178;8.370;2023-09-30T03:59:48;99177.00;;;13.73;100.00
18858;BME280;9558;50.178;8.370;2023-09-30T04:02:35;99177.66;;;13.75;100.00
18858;BME280;9558;50.178;8.370;2023-09-30T04:05:22;99173.06;;;13.77;100.00
18858;BME280;9558;50.178;8.370;2023-09-30T04:08:12;99175.50;;;13.78;100.00
18858;BME280;9558;50.178;8.370;2023-09-30T04:11:02;99179.56;;;13.81;100.00
18858;BME280;9558;50.178;8.370;2023-09-30T04:13:49;99186.41;;;13.82;100.00
18858;BME280;9558;50.178;8.370;2023-09-30T04:16:36;99175.16;;;13.81;100.00
18858;BME280;9558;50.178;8.370;2023-09-30T04:19:23;99184.13;;;13.79;100.00
18858;BME280;9558;50.178;8.370;2023-09-30T04:22:10;99186.25;;;13.75;100.00
18858;BME280;9558;50.178;8.370;2023-09-30T04:24:56;99200.22;;;13.74;100.00
18858;BME280;9558;50.178;8.370;2023-09-30T04:27:46;99198.63;;;13.73;100.00
18858;BME280;9558;50.178;8.370;2023-09-30T04:30:33;99199.78;;;13.71;100.00
18858;BME280;9558;50.178;8.370;2023-09-30T04:33:20;99200.13;;;13.68;100.00
18858;BME280;9558;50.178;8.370;2023-09-30T04:36:10;99191.66;;;13.65;100.00
18858;BME280;9558;50.178;8.370;2023-09-30T04:38:56;99187.78;;;13.61;100.00
18858;BME280;9558;50.178;8.370;2023-09-30T04:41:46;99186.19;;;13.60;100.00
18858;BME280;9558;50.178;8.370;2023-09-30T04:44:34;99189.56;;;13.61;100.00
18858;BME280;9558;50.178;8.370;2023-09-30T04:47:23;99198.53;;;13.58;100.00
18858;BME280;9558;50.178;8.370;2023-09-30T04:50:10;99206.50;;;13.57;100.00
18858;BME280;9558;50.178;8.370;2023-09-30T04:52:58;99196.59;;;13.52;100.00
18858;BME280;9558;50.178;8.370;2023-09-30T04:55:45;99187.84;;;13.53;100.00
18858;BME280;9558;50.178;8.370;2023-09-30T04:58:33;99189.31;;;13.47;100.00
18858;BME280;9558;50.178;8.370;2023-09-30T05:01:21;99190.47;;;13.45;100.00
18858;BME280;9558;50.178;8.370;2023-09-30T05:04:08;99193.22;;;13.43;100.00
18858;BME280;9558;50.178;8.370;2023-09-30T05:06:54;99195.66;;;13.45;100.00
18858;BME280;9558;50.178;8.370;2023-09-30T05:09:41;99201.19;;;13.42;100.00
18858;BME280;9558;50.178;8.370;2023-09-30T05:12:28;99204.78;;;13.41;100.00
18858;BME280;9558;50.178;8.370;2023-09-30T05:15:16;99188.50;;;13.47;100.00
18858;BME280;9558;50.178;8.370;2023-09-30T05:18:06;99186.75;;;13.39;100.00
18858;BME280;9558;50.178;8.370;2023-09-30T05:20:54;99188.53;;;13.30;100.00
18858;BME280;9558;50.178;8.370;2023-09-30T05:23:40;99191.94;;;13.23;100.00
18858;BME280;9558;50.178;8.370;2023-09-30T05:26:27;99193.13;;;13.12;100.00
18858;BME280;9558;50.178;8.370;2023-09-30T05:29:14;99181.13;;;13.03;100.00
18858;BME280;9558;50.178;8.370;2023-09-30T05:32:02;99191.38;;;12.96;100.00
18858;BME280;9558;50.178;8.370;2023-09-30T05:34:50;99201.78;;;12.88;100.00
18858;BME280;9558;50.178;8.370;2023-09-30T05:37:39;99207.78;;;12.80;100.00
18858;BME280;9558;50.178;8.370;2023-09-30T05:40:26;99214.59;;;12.73;100.00
18858;BME280;9558;50.178;8.370;2023-09-30T05:43:15;99225.81;;;12.65;100.00
18858;BME280;9558;50.178;8.370;2023-09-30T05:46:02;99223.03;;;12.58;100.00
18858;BME280;9558;50.178;8.370;2023-09-30T05:48:49;99220.31;;;12.52;100.00
18858;BME280;9558;50.178;8.370;2023-09-30T05:51:38;99219.97;;;12.47;100.00
18858;BME280;9558;50.178;8.370;2023-09-30T05:54:25;99231.31;;;12.45;100.00
18858;BME280;9558;50.178;8.370;2023-09-30T05:57:12;99212.00;;;12.40;100.00
18858;BME280;9558;50.178;8.370;2023-09-30T05:59:59;99228.69;;;12.37;100.00
18858;BME280;9558;50.178;8.370;2023-09-30T06:02:46;99220.91;;;12.37;100.00
18858;BME280;9558;50.178;8.370;2023-09-30T06:05:34;99228.53;;;12.31;100.00
18858;BME280;9558;50.178;8.370;2023-09-30T06:08:22;99235.34;;;12.32;100.00
18858;BME280;9558;50.178;8.370;2023-09-30T06:11:16;99244.28;;;12.29;100.00
18858;BME280;9558;50.178;8.370;2023-09-30T06:14:02;99241.97;;;12.26;100.00
18858;BME280;9558;50.178;8.370;2023-09-30T06:16:51;99262.25;;;12.22;100.00
18858;BME280;9558;50.178;8.370;2023-09-30T06:19:38;99248.97;;;12.25;100.00
18858;BME280;9558;50.178;8.370;2023-09-30T06:22:25;99256.44;;;12.28;100.00
18858;BME280;9558;50.178;8.370;2023-09-30T06:25:14;99242.16;;;12.33;100.00
18858;BME280;9558;50.178;8.370;2023-09-30T06:28:01;99242.66;;;12.36;100.00
18858;BME280;9558;50.178;8.370;2023-09-30T06:30:49;99256.44;;;12.37;100.00
18858;BME280;9558;50.178;8.370;2023-09-30T06:33:36;99252.22;;;12.36;100.00
18858;BME280;9558;50.178;8.370;2023-09-30T06:36:24;99252.72;;;12.39;100.00
18858;BME280;9558;50.178;8.370;2023-09-30T06:39:10;99258.41;;;12.43;100.00
18858;BME280;9558;50.178;8.370;2023-09-30T06:41:58;99256.47;;;12.45;100.00
18858;BME280;9558;50.178;8.370;2023-09-30T06:44:45;99253.72;;;12.47;100.00
18858;BME280;9558;50.178;8.370;2023-09-30T06:47:32;99250.63;;;12.51;100.00
18858;BME280;9558;50.178;8.370;2023-09-30T06:50:19;99255.50;;;12.54;100.00
18858;BME280;9558;50.178;8.370;2023-09-30T06:53:07;99265.56;;;12.57;100.00
18858;BME280;9558;50.178;8.370;2023-09-30T06:55:55;99267.19;;;12.67;100.00
18858;BME280;9558;50.178;8.370;2023-09-30T06:58:43;99271.41;;;12.84;100.00
18858;BME280;9558;50.178;8.370;2023-09-30T07:01:29;99280.34;;;13.14;100.00
18858;BME280;9558;50.178;8.370;2023-09-30T07:04:16;99272.38;;;13.49;100.00
18858;BME280;9558;50.178;8.370;2023-09-30T07:07:03;99270.63;;;13.81;100.00
18858;BME280;9558;50.178;8.370;2023-09-30T07:09:50;99282.38;;;14.08;100.00
18858;BME280;9558;50.178;8.370;2023-09-30T07:12:37;99282.84;;;14.43;100.00
18858;BME280;9558;50.178;8.370;2023-09-30T07:15:26;99277.53;;;14.83;100.00
18858;BME280;9558;50.178;8.370;2023-09-30T07:18:13;99282.28;;;15.02;100.00
18858;BME280;9558;50.178;8.370;2023-09-30T07:20:59;99275.28;;;15.18;100.00
18858;BME280;9558;50.178;8.370;2023-09-30T07:23:47;99288.53;;;15.31;100.00
18858;BME280;9558;50.178;8.370;2023-09-30T07:26:34;99291.69;;;16.01;100.00
18858;BME280;9558;50.178;8.370;2023-09-30T07:29:21;99294.53;;;16.58;100.00
18858;BME280;9558;50.178;8.370;2023-09-30T07:32:10;99302.75;;;17.55;100.00
18858;BME280;9558;50.178;8.370;2023-09-30T07:34:56;99302.13;;;18.43;92.60
18858;BME280;9558;50.178;8.370;2023-09-30T07:37:43;99297.94;;;19.29;83.47
18858;BME280;9558;50.178;8.370;2023-09-30T07:40:30;99286.38;;;20.22;81.19
18858;BME280;9558;50.178;8.370;2023-09-30T07:43:18;99289.06;;;21.04;76.60
18858;BME280;9558;50.178;8.370;2023-09-30T07:46:06;99286.03;;;21.70;70.94
18858;BME280;9558;50.178;8.370;2023-09-30T07:48:54;99294.06;;;22.54;74.03
18858;BME280;9558;50.178;8.370;2023-09-30T07:51:41;99299.56;;;23.30;70.35
18858;BME280;9558;50.178;8.370;2023-09-30T07:54:28;99298.47;;;23.91;67.45
18858;BME280;9558;50.178;8.370;2023-09-30T07:57:14;99295.75;;;24.31;63.44
18858;BME280;9558;50.178;8.370;2023-09-30T08:00:02;99297.69;;;24.65;64.43
18858;BME280;9558;50.178;8.370;2023-09-30T08:02:52;99288.69;;;25.00;61.35
18858;BME280;9558;50.178;8.370;2023-09-30T08:05:40;99283.38;;;25.17;59.39
18858;BME280;9558;50.178;8.370;2023-09-30T08:08:28;99283.19;;;25.41;59.31
18858;BME280;9558;50.178;8.370;2023-09-30T08:11:15;99289.44;;;25.74;57.82
18858;BME280;9558;50.178;8.370;2023-09-30T08:14:02;99298.34;;;26.12;57.15
18858;BME280;9558;50.178;8.370;2023-09-30T08:16:52;99305.66;;;26.54;55.29
18858;BME280;9558;50.178;8.370;2023-09-30T08:19:40;99288.88;;;26.81;54.59
18858;BME280;9558;50.178;8.370;2023-09-30T08:22:28;99294.97;;;27.14;54.23
18858;BME280;9558;50.178;8.370;2023-09-30T08:25:15;99292.72;;;27.38;52.27
18858;BME280;9558;50.178;8.370;2023-09-30T08:28:02;99305.81;;;27.55;51.34
18858;BME280;9558;50.178;8.370;2023-09-30T08:30:49;99306.38;;;27.57;50.28
18858;BME280;9558;50.178;8.370;2023-09-30T08:33:36;99308.53;;;27.60;49.19
18858;BME280;9558;50.178;8.370;2023-09-30T08:36:25;99318.09;;;27.61;48.25
18858;BME280;9558;50.178;8.370;2023-09-30T08:39:13;99312.81;;;27.71;48.89
18858;BME280;9558;50.178;8.370;2023-09-30T08:42:01;99319.59;;;27.41;47.08
18858;BME280;9558;50.178;8.370;2023-09-30T08:44:49;99317.56;;;26.79;46.82
18858;BME280;9558;50.178;8.370;2023-09-30T08:47:36;99323.91;;;26.45;47.23
18858;BME280;9558;50.178;8.370;2023-09-30T08:50:24;99323.06;;;26.12;46.21
18858;BME280;9558;50.178;8.370;2023-09-30T08:53:12;99325.50;;;25.75;45.41
18858;BME280;9558;50.178;8.370;2023-09-30T08:56:03;99321.09;;;25.24;46.20
18858;BME280;9558;50.178;8.370;2023-09-30T08:58:56;99318.69;;;24.72;49.39
18858;BME280;9558;50.178;8.370;2023-09-30T09:01:44;99322.41;;;24.13;51.73
18858;BME280;9558;50.178;8.370;2023-09-30T09:04:31;99331.63;;;23.58;53.10
18858;BME280;9558;50.178;8.370;2023-09-30T09:07:18;99326.97;;;22.94;54.94
18858;BME280;9558;50.178;8.370;2023-09-30T09:10:06;99335.44;;;22.42;56.33
18858;BME280;9558;50.178;8.370;2023-09-30T09:12:57;99335.84;;;21.90;59.02
18858;BME280;9558;50.178;8.370;2023-09-30T09:15:44;99327.38;;;21.26;59.34
18858;BME280;9558;50.178;8.370;2023-09-30T09:18:32;99336.72;;;20.58;58.99
18858;BME280;9558;50.178;8.370;2023-09-30T09:21:20;99337.84;;;19.98;61.01
18858;BME280;9558;50.178;8.370;2023-09-30T09:24:08;99341.34;;;19.51;64.10
18858;BME280;9558;50.178;8.370;2023-09-30T09:27:03;99327.06;;;19.21;66.49
18858;BME280;9558;50.178;8.370;2023-09-30T09:29:52;99329.47;;;18.89;67.04
18858;BME280;9558;50.178;8.370;2023-09-30T09:32:39;99327.59;;;18.62;70.25
18858;BME280;9558;50.178;8.370;2023-09-30T09:35:26;99321.88;;;18.32;70.25
18858;BME280;9558;50.178;8.370;2023-09-30T09:38:14;99325.22;;;18.12;70.55
18858;BME280;9558;50.178;8.370;2023-09-30T09:41:01;99320.69;;;17.93;69.47
18858;BME280;9558;50.178;8.370;2023-09-30T09:43:49;99328.47;;;17.79;70.13
18858;BME280;9558;50.178;8.370;2023-09-30T09:46:38;99335.47;;;17.72;71.79
18858;BME280;9558;50.178;8.370;2023-09-30T09:49:25;99329.00;;;17.68;74.23
18858;BME280;9558;50.178;8.370;2023-09-30T09:52:14;99330.38;;;17.64;73.30
18858;BME280;9558;50.178;8.370;2023-09-30T09:55:02;99319.66;;;17.59;74.29
18858;BME280;9558;50.178;8.370;2023-09-30T09:57:49;99309.78;;;17.54;74.07
18858;BME280;9558;50.178;8.370;2023-09-30T10:00:37;99308.34;;;17.52;73.74
18858;BME280;9558;50.178;8.370;2023-09-30T10:03:25;99304.69;;;17.46;71.87
18858;BME280;9558;50.178;8.370;2023-09-30T10:06:14;99305.91;;;17.43;72.72
18858;BME280;9558;50.178;8.370;2023-09-30T10:09:02;99295.44;;;17.43;73.17
18858;BME280;9558;50.178;8.370;2023-09-30T10:11:57;99284.59;;;17.47;73.76
18858;BME280;9558;50.178;8.370;2023-09-30T10:14:44;99301.72;;;17.49;72.90
18858;BME280;9558;50.178;8.370;2023-09-30T10:17:57;99288.44;;;17.51;73.45
18858;BME280;9558;50.178;8.370;2023-09-30T10:20:46;99279.19;;;17.55;70.81
18858;BME280;9558;50.178;8.370;2023-09-30T10:23:33;99281.81;;;17.55;70.63
18858;BME280;9558;50.178;8.370;2023-09-30T10:26:20;99291.91;;;17.58;70.77
18858;BME280;9558;50.178;8.370;2023-09-30T10:29:09;99286.28;;;17.61;70.08
18858;BME280;9558;50.178;8.370;2023-09-30T10:31:56;99288.69;;;17.62;70.17
18858;BME280;9558;50.178;8.370;2023-09-30T10:34:47;99287.31;;;17.67;70.34
18858;BME280;9558;50.178;8.370;2023-09-30T10:37:36;99294.38;;;17.66;70.15
18858;BME280;9558;50.178;8.370;2023-09-30T10:40:26;99295.56;;;17.70;70.52
18858;BME280;9558;50.178;8.370;2023-09-30T10:43:28;99290.78;;;17.74;70.65
18858;BME280;9558;50.178;8.370;2023-09-30T10:46:31;99285.56;;;17.81;71.04
18858;BME280;9558;50.178;8.370;2023-09-30T10:49:30;99285.19;;;17.84;70.42
18858;BME280;9558;50.178;8.370;2023-09-30T10:52:22;99285.38;;;17.89;70.37
18858;BME280;9558;50.178;8.370;2023-09-30T10:55:11;99286.44;;;17.94;70.02
18858;BME280;9558;50.178;8.370;2023-09-30T10:58:04;99296.38;;;17.99;70.56
18858;BME280;9558;50.178;8.370;2023-09-30T11:00:52;99287.91;;;18.04;70.81
18858;BME280;9558;50.178;8.370;2023-09-30T11:03:40;99283.91;;;18.08;70.12
18858;BME280;9558;50.178;8.370;2023-09-30T11:06:27;99282.88;;;18.09;68.63
18858;BME280;9558;50.178;8.370;2023-09-30T11:09:15;99287.91;;;18.10;68.56
18858;BME280;9558;50.178;8.370;2023-09-30T11:12:13;99290.75;;;18.16;69.53
18858;BME280;9558;50.178;8.370;2023-09-30T11:15:02;99294.00;;;18.18;69.37
18858;BME280;9558;50.178;8.370;2023-09-30T11:17:49;99291.59;;;18.23;69.24
18858;BME280;9558;50.178;8.370;2023-09-30T11:20:36;99288.97;;;18.23;68.36
18858;BME280;9558;50.178;8.370;2023-09-30T11:23:22;99283.72;;;18.23;68.59
18858;BME280;9558;50.178;8.370;2023-09-30T11:26:09;99291.19;;;18.26;69.47
18858;BME280;9558;50.178;8.370;2023-09-30T11:29:06;99296.66;;;18.31;69.85
18858;BME280;9558;50.178;8.370;2023-09-30T11:31:54;99290.22;;;18.34;70.14
18858;BME280;9558;50.178;8.370;2023-09-30T11:34:40;99295.84;;;18.37;68.80
18858;BME280;9558;50.178;8.370;2023-09-30T11:37:31;99293.03;;;18.39;68.20
18858;BME280;9558;50.178;8.370;2023-09-30T11:40:19;99290.22;;;18.40;69.11
18858;BME280;9558;50.178;8.370;2023-09-30T11:43:09;99289.84;;;18.43;69.10
18858;BME280;9558;50.178;8.370;2023-09-30T11:46:05;99293.06;;;18.45;68.96
18858;BME280;9558;50.178;8.370;2023-09-30T11:48:59;99299.09;;;18.46;67.66
18858;BME280;9558;50.178;8.370;2023-09-30T11:51:46;99294.06;;;18.44;68.28
18858;BME280;9558;50.178;8.370;2023-09-30T11:54:34;99292.06;;;18.46;68.01
18858;BME280;9558;50.178;8.370;2023-09-30T11:57:23;99299.94;;;18.46;67.73
18858;BME280;9558;50.178;8.370;2023-09-30T12:00:10;99286.00;;;18.46;67.19
18858;BME280;9558;50.178;8.370;2023-09-30T12:03:01;99278.13;;;18.46;66.68
18858;BME280;9558;50.178;8.370;2023-09-30T12:05:48;99274.72;;;18.45;66.59
18858;BME280;9558;50.178;8.370;2023-09-30T12:08:35;99274.72;;;18.45;67.28
18858;BME280;9558;50.178;8.370;2023-09-30T12:11:23;99278.56;;;18.50;67.67
18858;BME280;9558;50.178;8.370;2023-09-30T12:14:11;99280.56;;;18.54;67.57
18858;BME280;9558;50.178;8.370;2023-09-30T12:16:59;99275.13;;;18.56;67.50
18858;BME280;9558;50.178;8.370;2023-09-30T12:19:47;99272.09;;;18.59;66.57
18858;BME280;9558;50.178;8.370;2023-09-30T12:22:34;99264.66;;;18.62;66.87
18858;BME280;9558;50.178;8.370;2023-09-30T12:25:22;99265.25;;;18.64;65.77
18858;BME280;9558;50.178;8.370;2023-09-30T12:28:10;99252.13;;;18.64;65.89
18858;BME280;9558;50.178;8.370;2023-09-30T12:30:59;99256.00;;;18.62;65.50
18858;BME280;9558;50.178;8.370;2023-09-30T12:33:48;99256.81;;;18.69;67.12
18858;BME280;9558;50.178;8.370;2023-09-30T12:36:38;99255.38;;;18.73;67.03
18858;BME280;9558;50.178;8.370;2023-09-30T12:39:25;99266.06;;;18.78;67.04
18858;BME280;9558;50.178;8.370;2023-09-30T12:42:15;99247.50;;;18.80;67.01
18858;BME280;9558;50.178;8.370;2023-09-30T12:45:03;99260.00;;;18.85;67.74
18858;BME280;9558;50.178;8.370;2023-09-30T12:47:51;99252.59;;;18.88;67.58
18858;BME280;9558;50.178;8.370;2023-09-30T12:50:39;99252.38;;;18.90;67.67
18858;BME280;9558;50.178;8.370;2023-09-30T12:53:27;99247.94;;;18.83;66.47
18858;BME280;9558;50.178;8.370;2023-09-30T12:56:14;99255.16;;;18.81;67.02
18858;BME280;9558;50.178;8.370;2023-09-30T12:59:01;99259.63;;;18.81;67.01
18858;BME280;9558;50.178;8.370;2023-09-30T13:01:48;99258.41;;;18.83;68.25
18858;BME280;9558;50.178;8.370;2023-09-30T13:04:35;99254.16;;;18.82;67.96
18858;BME280;9558;50.178;8.370;2023-09-30T13:07:23;99251.75;;;18.81;68.28
18858;BME280;9558;50.178;8.370;2023-09-30T13:10:12;99240.84;;;18.77;66.69
18858;BME280;9558;50.178;8.370;2023-09-30T13:12:58;99235.41;;;18.79;69.99
18858;BME280;9558;50.178;8.370;2023-09-30T13:15:45;99226.53;;;18.80;68.44
18858;BME280;9558;50.178;8.370;2023-09-30T13:18:32;99232.97;;;18.77;67.70
18858;BME280;9558;50.178;8.370;2023-09-30T13:21:19;99227.72;;;18.77;67.51
18858;BME280;9558;50.178;8.370;2023-09-30T13:24:06;99220.91;;;18.76;67.38
18858;BME280;9558;50.178;8.370;2023-09-30T13:26:57;99218.28;;;18.76;67.48
18858;BME280;9558;50.178;8.370;2023-09-30T13:29:45;99215.25;;;18.73;66.99
18858;BME280;9558;50.178;8.370;2023-09-30T13:32:31;99220.69;;;18.71;66.78
18858;BME280;9558;50.178;8.370;2023-09-30T13:35:21;99213.81;;;18.70;67.77
18858;BME280;9558;50.178;8.370;2023-09-30T13:38:08;99224.09;;;18.72;67.91
18858;BME280;9558;50.178;8.370;2023-09-30T13:40:54;99224.94;;;18.72;68.79
18858;BME280;9558;50.178;8.370;2023-09-30T13:43:43;99219.47;;;18.67;69.10
18858;BME280;9558;50.178;8.370;2023-09-30T13:46:29;99211.59;;;18.67;68.53
18858;BME280;9558;50.178;8.370;2023-09-30T13:49:16;99209.59;;;18.69;69.00
18858;BME280;9558;50.178;8.370;2023-09-30T13:52:03;99205.38;;;18.68;69.38
18858;BME280;9558;50.178;8.370;2023-09-30T13:54:51;99205.94;;;18.70;68.73
18858;BME280;9558;50.178;8.370;2023-09-30T13:57:37;99205.38;;;18.68;68.65
18858;BME280;9558;50.178;8.370;2023-09-30T14:00:25;99207.16;;;18.68;69.12
18858;BME280;9558;50.178;8.370;2023-09-30T14:03:12;99199.13;;;18.69;70.10
18858;BME280;9558;50.178;8.370;2023-09-30T14:05:59;99201.75;;;18.69;67.25
18858;BME280;9558;50.178;8.370;2023-09-30T14:08:46;99188.63;;;18.69;69.29
18858;BME280;9558;50.178;8.370;2023-09-30T14:11:32;99187.19;;;18.73;70.29
18858;BME280;9558;50.178;8.370;2023-09-30T14:14:19;99187.81;;;18.75;70.13
18858;BME280;9558;50.178;8.370;2023-09-30T14:17:07;99189.63;;;18.75;70.10
18858;BME280;9558;50.178;8.370;2023-09-30T14:19:56;99189.44;;;18.76;70.09
18858;BME280;9558;50.178;8.370;2023-09-30T14:22:42;99185.97;;;18.76;70.78
18858;BME280;9558;50.178;8.370;2023-09-30T14:25:29;99180.94;;;18.74;71.20
18858;BME280;9558;50.178;8.370;2023-09-30T14:28:16;99179.16;;;18.75;71.33
18858;BME280;9558;50.178;8.370;2023-09-30T14:31:03;99179.31;;;18.73;70.15
18858;BME280;9558;50.178;8.370;2023-09-30T14:33:51;99173.91;;;18.68;68.72
18858;BME280;9558;50.178;8.370;2023-09-30T14:36:38;99174.91;;;18.67;69.11
18858;BME280;9558;50.178;8.370;2023-09-30T14:39:25;99174.91;;;18.67;69.94
18858;BME280;9558;50.178;8.370;2023-09-30T14:42:12;99174.91;;;18.67;70.23
18858;BME280;9558;50.178;8.370;2023-09-30T14:44:59;99182.34;;;18.70;70.08
18858;BME280;9558;50.178;8.370;2023-09-30T14:47:45;99172.47;;;18.72;70.44
18858;BME280;9558;50.178;8.370;2023-09-30T14:50:34;99177.31;;;18.75;69.83
18858;BME280;9558;50.178;8.370;2023-09-30T14:53:22;99174.28;;;18.72;69.52
18858;BME280;9558;50.178;8.370;2023-09-30T14:56:15;99173.47;;;18.71;69.38